MAPA DE AEROPUERTO

INFORMACIÓN METAR y TAF

METAR FOR LEAS
ADDS - METARS form results

(1217 UTC 27 November 2021)
Data provider http://aviationweather.gov/metar/data/
 
METAR text: LEAS 271200Z VRB07KT 9999 -RA SCT028CB BKN040 08/04 Q1012 TEMPO 3000 SHRA
Conditions at: LEAS (ASTURIAS/AVILES , ES) observed 1200 UTC 27 November 2021
Temperature: 8.0°C (46°F)
Dewpoint: 4.0°C (39°F) [RH = 76%]
Pressure (altimeter): 29.88 inches Hg (1012.0 mb)
Winds: variable direction winds at 8 MPH (7 knots; 3.6 m/s)
Visibility: 6 or more miles (10+ km)
Ceiling: 4000 feet AGL
Clouds: scattered clouds at 2800 feet AGL
broken clouds at 4000 feet AGL
Weather: -RA  (light rain)

METAR text: LEAS 271130Z VRB05G16KT 9999 -RA SCT028CB BKN040 07/04 Q1012 TEMPO 3000 SHRA
Conditions at: LEAS (ASTURIAS/AVILES , ES) observed 1130 UTC 27 November 2021
Temperature: 7.0°C (45°F)
Dewpoint: 4.0°C (39°F) [RH = 81%]
Pressure (altimeter): 29.88 inches Hg (1012.0 mb)
Winds: variable direction winds at 6 MPH (5 knots; 2.6 m/s)
gusting to 18 MPH (16 knots; 8.2 m/s)
Visibility: 6 or more miles (10+ km)
Ceiling: 4000 feet AGL
Clouds: scattered clouds at 2800 feet AGL
broken clouds at 4000 feet AGL
Weather: -RA  (light rain)

METAR text: LEAS 271120Z VRB07G20KT 9000 -RA SCT028CB BKN045 07/04 Q1012 RESHRA TEMPO 3000 SHRA
Conditions at: LEAS (ASTURIAS/AVILES , ES) observed 1120 UTC 27 November 2021
Temperature: 7.0°C (45°F)
Dewpoint: 4.0°C (39°F) [RH = 81%]
Pressure (altimeter): 29.88 inches Hg (1012.0 mb)
Winds: variable direction winds at 8 MPH (7 knots; 3.6 m/s)
gusting to 23 MPH (20 knots; 10.3 m/s)
Visibility: 6 miles ( 9 km)
Ceiling: 4500 feet AGL
Clouds: scattered clouds at 2800 feet AGL
broken clouds at 4500 feet AGL
Weather: -RA  (light rain)

Forecast for: LEAS (ASTURIAS/AVILES , ES)
Text: TAF LEAS 270800Z 2709/2809 32012KT 9999 SCT020 BKN035 TX10/2712Z TN06/2710Z
Forecast period: 0900 UTC 27 November 2021 to 0900 UTC 28 November 2021
Forecast type: FROM: standard forecast or significant change
Winds: from the NW (320 degrees) at 14 MPH (12 knots; 6.2 m/s)
Visibility: 6 or more miles (10+ km)
Ceiling: 3500 feet AGL
Clouds: scattered clouds at 2000 feet AGL
broken clouds at 3500 feet AGL
Weather: no significant weather forecast for this period
Text: TEMPO 2709/2803 30019G29KT
Forecast period: 0900 UTC 27 November 2021 to 0300 UTC 28 November 2021
Forecast type: TEMPORARY: The following changes expected for less than half the time period
Winds: from the WNW (300 degrees) at 22 MPH (19 knots; 9.8 m/s)
gusting to 33 MPH (29 knots; 14.9 m/s)
Visibility: missing
Ceiling: unknown
Clouds: missing
Weather: no significant weather forecast for this period
Text: PROB30
Forecast period: 0900 to 1000 UTC 27 November 2021
Forecast type: TEMPORARY: The following changes expected for less than half the time period
Winds: from the WNW (300 degrees) at 29 MPH (25 knots; 12.9 m/s)
gusting to 49 MPH (43 knots; 22.1 m/s)
Visibility: missing
Ceiling: unknown
Clouds: missing
Weather: no significant weather forecast for this period
Text: TEMPO 2709/2710 30025G43KT
Forecast period: 0900 UTC 27 November 2021 to 0900 UTC 28 November 2021
Forecast type: TEMPORARY: The following changes expected for less than half the time period
Visibility: 1.86 miles (2.99 km)
Ceiling: at least 12,000 feet AGL
Clouds: scattered clouds at 3000 feet AGL
Weather: RA SHRA  (moderate rain, rain showers)
Text: TEMPO 2709/2809 3000 RA SHRA SCT030TCU
Forecast period: 0900 to 1800 UTC 27 November 2021
Forecast type: TEMPORARY: The following changes expected for less than half the time period
Visibility: 0.93 miles (1.50 km)
Ceiling: 1000 feet AGL
Clouds: broken clouds at 1000 feet AGL
scattered clouds at 3000 feet AGL
scattered clouds at 3500 feet AGL
Weather: SHRA SHGR  (rain showers, hail showers)
Text: PROB40
Forecast period: 0900 to 1700 UTC 27 November 2021
Forecast type: TEMPORARY: The following changes expected for less than half the time period
Visibility: missing
Ceiling: at least 12,000 feet AGL
Clouds: scattered clouds at 3000 feet AGL
Weather: TS  (thunderstorm)